Etusivu
METAR-TAF:

METAR-TAF

Lentoasemat :

Millington, Tennessee, Yhdysvallat

Leveyspiiri: 35-21-24N, Pituuspiiri: 089-52-13W, korkeus merenpinnasta: 98 m

Tämänhetkinen sää

Tämä raportti tehtiin 23 minuuttia sitten, kello 08.35 UTC
Tuuli 4 kn pohjoisesta
Lämpötila 2°C
Kosteus 87%
Ilmanpaine 1031 hPa
Näkyvyys: 16.1 km
selkeää

METAR: KNQA 080835Z AUTO 35004KT 10SM CLR 02/00 A3044 RMK A01

Aika: 02:58 (08:58 UTC)


TAF: puuttuu

Säähavainnot ja -ennusteet yli 4000 lentoasemalta (METAR- ja TAF-raportit).

Käytössä olevat sääasemat on merkitty karttaan keltaisilla ja punaisilla pisteillä.

Aseta hiiri pisteen päälle nähdäksesi sääaseman nimen.

Klikkaa sitten nähdäksesi säähavainnot ja -ennusteet.

Kartan vaihtaminen: klikkaa mustalla rastilla varustettuja vihreitä pisteitä, niin voit zoomata sisään; viivalla varustettua vihreää pistettä, niin voit zoomata ulos tai vihreitä nuolia, niin pääset viereisille kartoille.


METAR-TAF: